Western Head, Canada
Current Conditions -  °F | °C
As of 5:00 AM on Saturday 29 Nov 2014 (Local Time) from CYZX Reporting Station
Overcast Overcast  
Wind Chill: 15°   Ceiling: 2600
Heat Index: 27°   Visibility: 15mi
Dew Point: 21°   Wind: 15mph
Humidity: 80%   Direction: 290°WNW
Pressure: 30.11"   Gusts: NA
Location:  43.99°N, 64.68°W
Report Text: CYZX 290900Z 29013KT 15SM BKN026 OVC090 M03/M06 A3011 RMK SC6AC2 WNDY HILL 31010KT SLP197
Loading
Personal Weather Stations






























Interactive Weather Map New forecast layout! Learn more

10-Day Weather Forecast

Advertisements
Track Severe Weather on mobile